Time;durP1;ratioP1;P1;durP2;ratioP2;P2;SDS_P1;SDS_P2;PMS_P1;PMS_P2;Temp;Humidity;BMP_temperature;BMP_pressure;BME280_temperature;BME280_humidity;BME280_pressure;Samples;Min_cycle;Max_cycle;Signal;HPM_P1;HPM_P2
2022/03/16 00:02:06;;;;;;;17.70;10.30;;;9.50;99.90;;;;;;5117678;28;20902;-71
2022/03/16 00:04:34;;;;;;;16.87;11.27;;;9.50;99.90;;;;;;5117619;28;20452;-70
2022/03/16 00:07:01;;;;;;;19.80;12.27;;;9.40;99.90;;;;;;5118046;28;20460;-70
2022/03/16 00:09:28;;;;;;;21.10;12.20;;;9.40;99.90;;;;;;5118033;28;20491;-70
2022/03/16 00:11:54;;;;;;;17.93;12.30;;;9.40;99.90;;;;;;5117761;28;20472;-70
2022/03/16 00:14:21;;;;;;;17.00;11.30;;;9.50;99.90;;;;;;5117839;28;20774;-70
2022/03/16 00:16:48;;;;;;;17.80;12.13;;;9.40;99.90;;;;;;5117601;28;20467;-71
2022/03/16 00:19:14;;;;;;;22.43;12.50;;;9.50;99.90;;;;;;5117438;28;20453;-69
2022/03/16 00:21:42;;;;;;;18.07;12.03;;;9.40;99.90;;;;;;5117962;28;20479;-71
2022/03/16 00:24:10;;;;;;;23.80;13.10;;;9.40;99.90;;;;;;5117771;28;20517;-69
2022/03/16 00:26:36;;;;;;;22.33;12.47;;;9.40;99.90;;;;;;5117489;28;20467;-70
2022/03/16 00:29:03;;;;;;;29.80;15.00;;;9.30;99.90;;;;;;5117631;28;20468;-70
2022/03/16 00:31:30;;;;;;;22.63;13.13;;;9.30;99.90;;;;;;5117890;28;20476;-70
2022/03/16 00:33:56;;;;;;;20.40;12.73;;;9.30;99.90;;;;;;5118241;28;20462;-70
2022/03/16 00:36:23;;;;;;;22.40;13.83;;;9.30;99.90;;;;;;5118621;28;20456;-70
2022/03/16 00:38:51;;;;;;;24.57;13.10;;;9.30;99.90;;;;;;5117830;28;20460;-70
2022/03/16 00:41:18;;;;;;;18.67;13.23;;;9.20;99.90;;;;;;5117207;28;20452;-70
2022/03/16 00:43:45;;;;;;;25.70;14.00;;;9.20;99.90;;;;;;5117488;28;20531;-70
2022/03/16 00:46:12;;;;;;;21.03;13.97;;;9.20;99.90;;;;;;5116864;28;20532;-71
2022/03/16 00:48:39;;;;;;;22.53;13.83;;;9.10;99.90;;;;;;5117051;28;20886;-71
2022/03/16 00:51:06;;;;;;;25.30;13.50;;;9.10;99.90;;;;;;5117207;28;20772;-69
2022/03/16 00:53:34;;;;;;;116.13;54.20;;;9.10;99.90;;;;;;5116663;28;20488;-69
2022/03/16 00:56:02;;;;;;;33.83;17.50;;;9.00;99.90;;;;;;5116951;28;20974;-69
2022/03/16 00:58:29;;;;;;;24.37;14.70;;;9.00;99.90;;;;;;5117024;28;20817;-70
2022/03/16 01:00:56;;;;;;;22.83;13.80;;;9.00;99.90;;;;;;5117104;28;20464;-69
2022/03/16 01:03:23;;;;;;;23.87;14.57;;;9.00;99.90;;;;;;5117082;28;20456;-71
2022/03/16 01:05:50;;;;;;;22.50;13.73;;;8.90;99.90;;;;;;5118047;28;20525;-71
2022/03/16 01:08:16;;;;;;;30.67;15.30;;;8.90;99.90;;;;;;5117535;28;20532;-73
2022/03/16 01:10:43;;;;;;;29.07;14.10;;;8.80;99.90;;;;;;5116632;28;20453;-70
2022/03/16 01:13:11;;;;;;;22.30;14.67;;;8.80;99.90;;;;;;5116619;28;20487;-70
2022/03/16 01:15:38;;;;;;;29.40;16.70;;;8.80;99.90;;;;;;5116896;28;20456;-70
2022/03/16 01:18:06;;;;;;;28.17;14.47;;;8.70;99.90;;;;;;5116903;28;20465;-71
2022/03/16 01:20:33;;;;;;;27.47;15.90;;;8.70;99.90;;;;;;5116825;28;20452;-70
2022/03/16 01:23:00;;;;;;;22.53;14.10;;;8.70;99.90;;;;;;5116488;28;20459;-70
2022/03/16 01:25:27;;;;;;;21.93;13.67;;;8.70;99.90;;;;;;5116604;28;20464;-70
2022/03/16 01:27:53;;;;;;;29.43;15.30;;;8.60;99.90;;;;;;5117100;28;20467;-70
2022/03/16 01:30:21;;;;;;;27.67;14.70;;;8.60;99.90;;;;;;5116741;28;20791;-70
2022/03/16 01:32:48;;;;;;;21.60;14.27;;;8.60;99.90;;;;;;5116764;28;20841;-71
2022/03/16 01:35:15;;;;;;;19.03;13.87;;;8.50;99.90;;;;;;5116158;28;20563;-70
2022/03/16 01:37:45;;;;;;;23.40;13.80;;;8.50;99.90;;;;;;5116012;28;20456;-70
2022/03/16 01:40:12;;;;;;;25.10;13.93;;;8.50;99.90;;;;;;5116114;28;20932;-70
2022/03/16 01:42:40;;;;;;;23.63;14.47;;;8.40;99.90;;;;;;5116256;28;20449;-70
2022/03/16 01:45:10;;;;;;;28.57;16.43;;;8.40;99.90;;;;;;5116799;28;20465;-70
2022/03/16 01:47:38;;;;;;;28.60;14.93;;;8.40;99.90;;;;;;5116718;28;20460;-70
2022/03/16 01:50:06;;;;;;;30.50;15.40;;;8.30;99.90;;;;;;5116211;28;20452;-69
2022/03/16 01:52:33;;;;;;;20.37;14.63;;;8.30;99.90;;;;;;5116081;28;20968;-68
2022/03/16 01:55:04;;;;;;;20.23;13.93;;;8.30;99.90;;;;;;5115915;28;20464;-68
2022/03/16 01:57:33;;;;;;;25.37;14.93;;;8.20;99.90;;;;;;5114974;28;20444;-68
2022/03/16 01:59:59;;;;;;;24.20;13.60;;;8.20;99.90;;;;;;5115718;28;20467;-70
2022/03/16 02:02:27;;;;;;;23.70;13.80;;;8.20;99.90;;;;;;5115972;28;20926;-68
2022/03/16 02:04:55;;;;;;;24.00;14.17;;;8.20;99.90;;;;;;5115545;28;20464;-68
2022/03/16 02:07:22;;;;;;;23.97;14.40;;;8.10;99.90;;;;;;5115592;28;20460;-68
2022/03/16 02:09:50;;;;;;;23.40;14.00;;;8.10;99.90;;;;;;5115458;28;20906;-68
2022/03/16 02:12:16;;;;;;;28.03;14.67;;;8.10;99.90;;;;;;5114876;28;20472;-69
2022/03/16 02:14:43;;;;;;;19.53;13.93;;;8.10;99.90;;;;;;5115153;28;20456;-68
2022/03/16 02:17:10;;;;;;;22.80;14.63;;;8.00;99.90;;;;;;5115365;28;20766;-68
2022/03/16 02:19:37;;;;;;;24.93;14.20;;;8.00;99.90;;;;;;5115012;28;20463;-69
2022/03/16 02:22:09;;;;;;;22.50;15.00;;;7.90;99.90;;;;;;5115112;28;20456;-68
2022/03/16 02:24:37;;;;;;;22.90;14.10;;;7.80;99.90;;;;;;5115221;28;20436;-68
2022/03/16 02:27:04;;;;;;;23.60;14.37;;;7.90;99.90;;;;;;5115516;28;20460;-69
2022/03/16 02:29:31;;;;;;;22.30;14.23;;;7.90;99.90;;;;;;5115112;28;20452;-68
2022/03/16 02:31:58;;;;;;;21.00;13.60;;;7.80;99.90;;;;;;5115283;28;20453;-68
2022/03/16 02:34:24;;;;;;;20.27;12.90;;;7.80;99.90;;;;;;5115072;28;20771;-68
2022/03/16 02:36:51;;;;;;;20.27;13.07;;;7.70;99.90;;;;;;5115577;28;20452;-68
2022/03/16 02:39:18;;;;;;;21.77;13.50;;;7.70;99.90;;;;;;5115164;28;20463;-68
2022/03/16 02:41:48;;;;;;;18.37;13.10;;;7.60;99.90;;;;;;5114904;28;20475;-68
2022/03/16 02:44:14;;;;;;;20.67;14.20;;;7.60;99.90;;;;;;5115388;28;20445;-67
2022/03/16 02:46:41;;;;;;;19.77;13.90;;;7.60;99.90;;;;;;5115123;28;20563;-68
2022/03/16 02:49:08;;;;;;;17.03;12.17;;;7.60;99.90;;;;;;5115011;28;20921;-68
2022/03/16 02:51:35;;;;;;;18.03;12.60;;;7.60;99.90;;;;;;5114920;28;20480;-68
2022/03/16 02:54:01;;;;;;;19.40;12.43;;;7.60;99.90;;;;;;5115173;28;20987;-68
2022/03/16 02:56:28;;;;;;;20.30;13.17;;;7.50;99.90;;;;;;5114545;28;20455;-68
2022/03/16 02:58:56;;;;;;;21.70;11.83;;;7.50;99.90;;;;;;5115393;28;20459;-68
2022/03/16 03:01:23;;;;;;;25.63;13.80;;;7.40;99.90;;;;;;5114862;28;20484;-68
2022/03/16 03:03:50;;;;;;;18.30;12.63;;;7.40;99.90;;;;;;5115233;28;20480;-68
2022/03/16 03:06:17;;;;;;;23.53;12.90;;;7.40;99.90;;;;;;5115035;28;20939;-68
2022/03/16 03:08:44;;;;;;;20.40;13.03;;;7.30;99.90;;;;;;5117206;28;20456;-70
2022/03/16 03:11:11;;;;;;;24.00;15.23;;;7.30;99.90;;;;;;5120439;28;20548;-71
2022/03/16 03:13:37;;;;;;;21.63;13.47;;;7.30;99.90;;;;;;5120695;28;20541;-69
2022/03/16 03:16:06;;;;;;;18.70;12.70;;;7.20;99.90;;;;;;5121915;28;20898;-70
2022/03/16 03:18:35;;;;;;;23.00;13.13;;;7.20;99.90;;;;;;5121559;28;20783;-70
2022/03/16 03:21:01;;;;;;;19.60;12.93;;;7.10;99.90;;;;;;5120543;28;20517;-70
2022/03/16 03:23:28;;;;;;;20.53;13.50;;;7.10;99.90;;;;;;5119398;28;20463;-70
2022/03/16 03:25:55;;;;;;;24.67;14.10;;;7.10;99.90;;;;;;5119404;28;20459;-71
2022/03/16 03:28:22;;;;;;;27.83;15.33;;;7.00;99.90;;;;;;5119227;28;20479;-69
2022/03/16 03:30:48;;;;;;;26.50;14.87;;;7.00;99.90;;;;;;5119012;28;20452;-69
2022/03/16 03:33:18;;;;;;;25.77;14.17;;;7.00;99.90;;;;;;5118210;28;20510;-69
2022/03/16 03:35:45;;;;;;;25.30;14.57;;;6.90;99.90;;;;;;5119018;28;20456;-70
2022/03/16 03:38:13;;;;;;;23.80;13.70;;;6.90;99.90;;;;;;5118968;28;20550;-70
2022/03/16 03:40:39;;;;;;;23.03;13.90;;;6.90;99.90;;;;;;5118696;28;20487;-70
2022/03/16 03:43:06;;;;;;;24.30;14.40;;;6.90;99.90;;;;;;5119087;28;20521;-70
2022/03/16 03:45:33;;;;;;;19.43;13.47;;;6.80;99.90;;;;;;5118547;28;20517;-70
2022/03/16 03:47:59;;;;;;;21.20;14.00;;;6.80;99.90;;;;;;5118814;28;20479;-71
2022/03/16 03:50:27;;;;;;;25.30;15.30;;;6.70;99.90;;;;;;5118894;28;20460;-70
2022/03/16 03:52:54;;;;;;;23.60;14.13;;;6.70;99.90;;;;;;5117996;28;20488;-71
2022/03/16 03:55:22;;;;;;;25.43;14.97;;;6.60;99.90;;;;;;5118668;28;20483;-71
2022/03/16 03:57:49;;;;;;;26.87;14.77;;;6.60;99.90;;;;;;5118776;28;20452;-70
2022/03/16 04:00:16;;;;;;;24.87;14.50;;;6.60;99.90;;;;;;5118032;28;20452;-70
2022/03/16 04:02:48;;;;;;;20.80;14.77;;;6.50;99.90;;;;;;5118313;28;20452;-71
2022/03/16 04:05:14;;;;;;;23.30;13.37;;;6.40;99.90;;;;;;5119267;28;20519;-71
2022/03/16 04:07:42;;;;;;;24.33;13.77;;;6.40;99.90;;;;;;5118282;28;20521;-70
2022/03/16 04:10:10;;;;;;;26.00;14.93;;;6.40;99.90;;;;;;5118429;28;20513;-71
2022/03/16 04:12:37;;;;;;;26.87;14.30;;;6.30;99.90;;;;;;5118207;28;20813;-70
2022/03/16 04:15:04;;;;;;;24.30;13.80;;;6.30;99.90;;;;;;5117671;28;20463;-72
2022/03/16 04:17:31;;;;;;;23.00;14.00;;;6.30;99.90;;;;;;5117649;28;20914;-69
2022/03/16 04:19:58;;;;;;;22.50;15.43;;;6.30;99.90;;;;;;5116837;28;20475;-70
2022/03/16 04:22:27;;;;;;;23.80;14.00;;;6.30;99.90;;;;;;5117693;28;20453;-71
2022/03/16 04:24:55;;;;;;;22.07;13.93;;;6.40;99.90;;;;;;5117970;28;20521;-70
2022/03/16 04:27:21;;;;;;;24.23;16.87;;;6.30;99.90;;;;;;5118094;28;20534;-70
2022/03/16 04:29:48;;;;;;;24.13;13.70;;;6.30;99.90;;;;;;5117810;28;20456;-69
2022/03/16 04:32:15;;;;;;;26.70;15.40;;;6.30;99.90;;;;;;5118008;28;20471;-70
2022/03/16 04:34:42;;;;;;;29.83;15.17;;;6.30;99.90;;;;;;5118471;28;20476;-71
2022/03/16 04:37:09;;;;;;;29.23;17.70;;;6.30;99.90;;;;;;5117795;28;20836;-70
2022/03/16 04:39:36;;;;;;;23.40;14.70;;;6.30;99.90;;;;;;5117590;28;20459;-70
2022/03/16 04:42:04;;;;;;;27.47;15.03;;;6.30;99.90;;;;;;5118030;28;20521;-70
2022/03/16 04:44:31;;;;;;;22.90;14.07;;;6.30;99.90;;;;;;5117782;28;20529;-70
2022/03/16 04:46:58;;;;;;;24.23;14.57;;;6.20;99.90;;;;;;5117972;28;20461;-70
2022/03/16 04:49:25;;;;;;;23.40;13.83;;;6.10;99.90;;;;;;5118222;28;20462;-70
2022/03/16 04:51:51;;;;;;;24.10;14.60;;;6.10;99.90;;;;;;5119285;28;20477;-71
2022/03/16 04:54:18;;;;;;;27.07;14.87;;;6.10;99.90;;;;;;5119650;28;20472;-69
2022/03/16 04:56:45;;;;;;;23.53;15.00;;;6.10;99.90;;;;;;5118826;28;20459;-70
2022/03/16 04:59:13;;;;;;;26.83;14.90;;;6.10;99.90;;;;;;5119341;28;20452;-70
2022/03/16 05:01:39;;;;;;;24.77;14.57;;;6.10;99.90;;;;;;5117128;28;20452;-70
2022/03/16 05:04:06;;;;;;;25.30;15.47;;;6.10;99.90;;;;;;5117044;28;20463;-70
2022/03/16 05:06:35;;;;;;;29.27;16.73;;;6.10;99.90;;;;;;5116802;28;20498;-70
2022/03/16 05:09:02;;;;;;;31.40;15.70;;;6.10;99.90;;;;;;5116985;28;20467;-70
2022/03/16 05:11:29;;;;;;;24.80;15.53;;;6.00;99.90;;;;;;5116889;28;20467;-71
2022/03/16 05:13:56;;;;;;;26.70;16.37;;;6.00;99.90;;;;;;5116902;28;20537;-70
2022/03/16 05:16:24;;;;;;;28.30;15.77;;;6.00;99.90;;;;;;5116700;28;20464;-71
2022/03/16 05:18:51;;;;;;;27.07;14.87;;;6.00;99.90;;;;;;5116791;28;20456;-70
2022/03/16 05:21:17;;;;;;;30.90;18.43;;;6.00;99.90;;;;;;5116604;28;20468;-69
2022/03/16 05:23:44;;;;;;;36.10;22.97;;;5.90;99.90;;;;;;5116773;28;20487;-69
2022/03/16 05:26:11;;;;;;;34.83;17.90;;;5.90;99.90;;;;;;5116620;28;20453;-69
2022/03/16 05:28:37;;;;;;;26.10;16.17;;;5.90;99.90;;;;;;5116540;28;20457;-69
2022/03/16 05:31:04;;;;;;;25.90;15.97;;;5.90;99.90;;;;;;5118010;28;20449;-70
2022/03/16 05:33:32;;;;;;;26.97;15.80;;;5.90;99.90;;;;;;5117265;28;20476;-70
2022/03/16 05:35:59;;;;;;;25.60;16.50;;;5.90;99.90;;;;;;5117061;28;20533;-69
2022/03/16 05:38:26;;;;;;;28.70;15.60;;;5.80;99.90;;;;;;5116841;28;20452;-70
2022/03/16 05:40:52;;;;;;;27.13;17.63;;;5.80;99.90;;;;;;5116082;28;20485;-70
2022/03/16 05:43:21;;;;;;;28.80;16.50;;;5.90;99.90;;;;;;5116544;28;20479;-70
2022/03/16 05:45:48;;;;;;;25.83;15.87;;;5.80;99.90;;;;;;5115542;28;20558;-71
2022/03/16 05:48:15;;;;;;;28.60;17.57;;;5.80;99.90;;;;;;5116079;28;20486;-70
2022/03/16 05:50:45;;;;;;;27.70;15.90;;;5.80;99.90;;;;;;5115947;28;20452;-71
2022/03/16 05:53:12;;;;;;;25.00;15.70;;;5.80;99.90;;;;;;5115278;28;20484;-69
2022/03/16 05:55:40;;;;;;;25.57;15.67;;;5.90;99.90;;;;;;5115867;28;20512;-69
2022/03/16 05:58:07;;;;;;;32.27;16.83;;;5.80;99.90;;;;;;5115984;28;20457;-71
2022/03/16 06:00:33;;;;;;;26.57;16.87;;;5.80;99.90;;;;;;5115787;28;20456;-71
2022/03/16 06:03:00;;;;;;;26.57;17.03;;;5.80;99.90;;;;;;5115659;28;20464;-71
2022/03/16 06:05:27;;;;;;;33.67;17.83;;;5.80;99.90;;;;;;5116060;28;20517;-71
2022/03/16 06:07:55;;;;;;;24.90;16.43;;;5.80;99.90;;;;;;5115219;28;20525;-70
2022/03/16 06:10:21;;;;;;;29.53;17.97;;;5.80;99.90;;;;;;5115636;28;20457;-70
2022/03/16 06:12:53;;;;;;;32.93;17.77;;;5.90;99.90;;;;;;5115422;28;20475;-71
2022/03/16 06:15:20;;;;;;;27.87;16.33;;;5.90;99.90;;;;;;5115204;28;20448;-70
2022/03/16 06:17:46;;;;;;;32.73;19.70;;;5.90;99.90;;;;;;5115159;28;20453;-70
2022/03/16 06:20:13;;;;;;;39.10;21.30;;;5.90;99.90;;;;;;5115318;28;20929;-70
2022/03/16 06:22:42;;;;;;;27.87;19.00;;;5.90;99.90;;;;;;5115557;28;20463;-70
2022/03/16 06:25:10;;;;;;;31.10;18.43;;;6.00;99.90;;;;;;5115386;28;20840;-70
2022/03/16 06:27:37;;;;;;;32.80;17.87;;;6.00;99.90;;;;;;5115108;28;20463;-71
2022/03/16 06:30:04;;;;;;;34.47;18.13;;;6.00;99.90;;;;;;5115217;28;20449;-70
2022/03/16 06:32:31;;;;;;;29.37;18.37;;;6.10;99.90;;;;;;5114769;28;20529;-70
2022/03/16 06:34:58;;;;;;;31.70;19.67;;;6.10;99.90;;;;;;5115128;28;20537;-71
2022/03/16 06:37:24;;;;;;;30.83;17.93;;;6.10;99.90;;;;;;5114926;28;20466;-70
2022/03/16 06:39:51;;;;;;;32.37;17.90;;;6.10;99.90;;;;;;5115338;28;20452;-70
2022/03/16 06:42:19;;;;;;;41.60;18.93;;;6.10;99.90;;;;;;5115169;28;20464;-70
2022/03/16 06:44:46;;;;;;;29.00;20.00;;;6.10;99.90;;;;;;5114675;28;20529;-70
2022/03/16 06:47:13;;;;;;;33.57;19.03;;;6.10;99.90;;;;;;5114742;28;20537;-71
2022/03/16 06:49:39;;;;;;;29.80;18.00;;;6.10;99.90;;;;;;5114774;28;20456;-73
2022/03/16 06:52:06;;;;;;;32.70;19.30;;;6.10;99.90;;;;;;5114422;28;20502;-71
2022/03/16 06:54:33;;;;;;;32.57;20.17;;;6.10;99.90;;;;;;5114676;28;20953;-70
2022/03/16 06:57:00;;;;;;;30.07;18.47;;;6.10;99.90;;;;;;5114563;28;20453;-69
2022/03/16 06:59:28;;;;;;;29.30;18.03;;;6.10;99.90;;;;;;5114684;28;20464;-69
2022/03/16 07:01:55;;;;;;;33.77;19.10;;;6.20;99.90;;;;;;5114656;28;20453;-70
2022/03/16 07:04:21;;;;;;;30.27;17.60;;;6.20;99.90;;;;;;5115581;28;20453;-69
2022/03/16 07:06:48;;;;;;;31.77;18.20;;;6.20;99.90;;;;;;5114191;28;20451;-70
2022/03/16 07:09:15;;;;;;;28.97;18.37;;;6.20;99.90;;;;;;5114438;28;20460;-70
2022/03/16 07:11:41;;;;;;;28.10;17.33;;;6.20;99.90;;;;;;5114809;28;20525;-70
2022/03/16 07:16:54;;;;;;;35.50;19.10;;;6.20;99.90;;;;;;5114075;28;20514;-70
2022/03/16 07:19:20;;;;;;;29.93;18.50;;;6.20;99.90;;;;;;5113984;28;20460;-70
2022/03/16 07:21:47;;;;;;;30.00;17.70;;;6.30;99.90;;;;;;5114446;28;20464;-69
2022/03/16 07:24:14;;;;;;;31.40;20.50;;;6.30;99.90;;;;;;5114489;28;20463;-70
2022/03/16 07:26:40;;;;;;;40.83;22.03;;;6.40;99.90;;;;;;5114647;28;20903;-70
2022/03/16 07:29:07;;;;;;;31.40;18.07;;;6.30;99.90;;;;;;5114463;28;20570;-71
2022/03/16 07:31:34;;;;;;;32.67;18.27;;;6.30;99.90;;;;;;5114904;28;20747;-71
2022/03/16 07:34:03;;;;;;;26.70;16.20;;;6.30;99.90;;;;;;5114297;28;20774;-71
2022/03/16 07:36:31;;;;;;;28.70;16.60;;;6.20;99.90;;;;;;5114075;28;20521;-68
2022/03/16 07:38:58;;;;;;;27.20;16.63;;;6.10;99.90;;;;;;5113810;28;20962;-70
2022/03/16 07:41:25;;;;;;;24.70;16.93;;;6.10;99.90;;;;;;5114104;28;20921;-71
2022/03/16 07:43:51;;;;;;;26.00;17.17;;;6.20;99.90;;;;;;5114087;28;20475;-70
2022/03/16 07:46:18;;;;;;;24.93;14.93;;;6.20;99.90;;;;;;5114233;28;20468;-70
2022/03/16 07:48:45;;;;;;;27.03;16.47;;;6.20;99.90;;;;;;5114187;28;20457;-70
2022/03/16 07:51:14;;;;;;;22.67;15.63;;;6.20;99.90;;;;;;5113742;28;20939;-70
2022/03/16 07:53:40;;;;;;;28.53;17.23;;;6.20;99.90;;;;;;5113972;28;20786;-70
2022/03/16 07:56:07;;;;;;;27.70;17.60;;;6.30;99.90;;;;;;5116043;28;20475;-71
2022/03/16 07:58:35;;;;;;;29.63;17.60;;;6.40;99.90;;;;;;5117489;28;20543;-69
2022/03/16 08:01:02;;;;;;;35.87;19.07;;;6.40;99.90;;;;;;5117358;28;20905;-71
2022/03/16 08:03:28;;;;;;;39.03;22.50;;;6.50;99.90;;;;;;5117352;28;20456;-69
2022/03/16 08:05:55;;;;;;;43.87;24.43;;;6.40;99.90;;;;;;5117839;28;20463;-71
2022/03/16 08:08:24;;;;;;;41.63;24.07;;;6.40;99.90;;;;;;5117985;28;20460;-70
2022/03/16 08:10:51;;;;;;;42.53;20.67;;;6.40;99.90;;;;;;5119467;28;20460;-69
2022/03/16 08:13:17;;;;;;;40.67;23.50;;;6.50;99.90;;;;;;5118239;28;20462;-70
2022/03/16 08:15:44;;;;;;;36.23;21.00;;;6.60;99.90;;;;;;5117235;28;20491;-71
2022/03/16 08:18:11;;;;;;;38.10;19.20;;;6.70;99.90;;;;;;5117406;28;20460;-69
2022/03/16 08:20:38;;;;;;;30.93;17.80;;;6.70;99.90;;;;;;5117425;28;20457;-71
2022/03/16 08:23:07;;;;;;;24.30;16.07;;;6.70;99.90;;;;;;5117769;28;20451;-71
2022/03/16 08:25:35;;;;;;;40.10;26.23;;;6.80;99.90;;;;;;5117645;28;20513;-71
2022/03/16 08:28:01;;;;;;;29.67;14.60;;;6.90;99.90;;;;;;5117210;28;20452;-71
2022/03/16 08:30:28;;;;;;;20.80;12.70;;;6.90;99.90;;;;;;5117203;28;20915;-71
2022/03/16 08:32:55;;;;;;;20.10;13.80;;;6.90;99.90;;;;;;5116716;28;20452;-71
2022/03/16 08:35:22;;;;;;;18.13;11.70;;;7.00;99.90;;;;;;5117318;28;20491;-70
2022/03/16 08:37:49;;;;;;;18.10;12.03;;;7.00;99.90;;;;;;5117471;28;20495;-69
2022/03/16 08:40:16;;;;;;;16.60;12.57;;;7.10;99.90;;;;;;5117222;28;20474;-68
2022/03/16 08:42:44;;;;;;;22.20;14.90;;;7.10;99.90;;;;;;5117152;28;20449;-70
2022/03/16 08:45:11;;;;;;;21.70;13.03;;;7.10;99.90;;;;;;5117319;28;20480;-71
2022/03/16 08:47:38;;;;;;;20.40;13.30;;;7.10;99.90;;;;;;5117154;28;20478;-69
2022/03/16 08:50:06;;;;;;;17.00;12.20;;;7.00;99.90;;;;;;5117311;28;20460;-71
2022/03/16 08:52:33;;;;;;;18.70;11.80;;;7.00;99.90;;;;;;5116697;28;20499;-70
2022/03/16 08:55:02;;;;;;;17.63;12.00;;;7.10;99.90;;;;;;5117188;28;20484;-70
2022/03/16 08:57:29;;;;;;;18.40;11.07;;;7.10;99.90;;;;;;5117140;28;20880;-70
2022/03/16 08:59:57;;;;;;;18.10;12.27;;;7.20;99.90;;;;;;5117022;28;20775;-70
2022/03/16 09:02:23;;;;;;;17.87;12.10;;;7.30;99.90;;;;;;5116877;28;20789;-71
2022/03/16 09:04:52;;;;;;;19.97;12.07;;;7.40;99.90;;;;;;5116877;28;20463;-71
2022/03/16 09:07:18;;;;;;;15.90;11.63;;;7.50;99.90;;;;;;5116554;28;20452;-71
2022/03/16 09:09:45;;;;;;;35.87;22.33;;;7.60;99.90;;;;;;5116705;28;20887;-71
2022/03/16 09:12:12;;;;;;;16.30;12.10;;;7.60;99.90;;;;;;5116633;28;20465;-71
2022/03/16 09:14:41;;;;;;;17.53;11.67;;;7.70;99.90;;;;;;5116468;28;20488;-70
2022/03/16 09:17:10;;;;;;;19.07;12.07;;;7.60;99.90;;;;;;5116485;28;20520;-70
2022/03/16 09:19:37;;;;;;;20.33;13.33;;;7.60;99.90;;;;;;5116479;28;20448;-70
2022/03/16 09:22:04;;;;;;;18.57;11.60;;;7.60;99.90;;;;;;5116460;28;20453;-70
2022/03/16 09:24:32;;;;;;;19.07;11.43;;;7.70;99.90;;;;;;5116135;28;20550;-71
2022/03/16 09:26:59;;;;;;;20.20;12.40;;;7.70;99.90;;;;;;5115953;28;20556;-70
2022/03/16 09:29:28;;;;;;;20.60;11.87;;;7.70;99.90;;;;;;5115884;28;20460;-71
2022/03/16 09:31:55;;;;;;;18.83;13.10;;;7.70;99.90;;;;;;5116432;28;20484;-71
2022/03/16 09:34:24;;;;;;;18.33;12.03;;;7.80;99.90;;;;;;5116209;28;20476;-70
2022/03/16 09:36:51;;;;;;;20.67;12.37;;;7.80;99.90;;;;;;5115671;28;20463;-70
2022/03/16 09:39:17;;;;;;;20.73;14.10;;;7.80;99.90;;;;;;5116261;28;20463;-71
2022/03/16 09:41:44;;;;;;;20.37;12.17;;;7.90;99.90;;;;;;5115931;28;20456;-70
2022/03/16 09:44:11;;;;;;;19.17;11.77;;;8.00;99.90;;;;;;5115881;28;20525;-70
2022/03/16 09:46:42;;;;;;;21.10;15.13;;;8.10;99.90;;;;;;5115983;28;20471;-71
2022/03/16 09:49:09;;;;;;;20.60;13.00;;;8.20;99.90;;;;;;5115966;28;20548;-70
2022/03/16 09:51:39;;;;;;;18.37;11.43;;;8.20;99.90;;;;;;5115780;28;20481;-70
2022/03/16 09:54:07;;;;;;;19.20;12.20;;;8.30;99.90;;;;;;5115598;28;20444;-70
2022/03/16 09:56:34;;;;;;;16.20;11.23;;;8.30;99.90;;;;;;5115649;28;20452;-71
2022/03/16 09:59:01;;;;;;;20.47;12.70;;;8.40;99.90;;;;;;5115284;28;20463;-70
2022/03/16 10:01:27;;;;;;;16.93;12.60;;;8.40;99.90;;;;;;5115009;28;20574;-71
2022/03/16 10:03:59;;;;;;;16.80;11.80;;;8.40;99.90;;;;;;5115381;28;20484;-71
2022/03/16 10:06:26;;;;;;;17.63;11.57;;;8.50;99.90;;;;;;5115087;28;20472;-71
2022/03/16 10:14:25;;;;;;;14.40;10.73;;;8.90;99.90;;;;;;5118329;28;20523;-71
2022/03/16 10:19:51;;;;;;;17.00;10.67;;;9.10;99.90;;;;;;5117890;28;20415;-69
2022/03/16 10:22:28;;;;;;;15.50;9.90;;;9.20;99.90;;;;;;5115125;28;20529;-71
2022/03/16 10:25:03;;;;;;;16.60;10.47;;;9.40;99.90;;;;;;5114908;28;20449;-70
2022/03/16 10:27:30;;;;;;;17.87;13.37;;;9.60;99.90;;;;;;5115086;28;20860;-70
2022/03/16 10:29:57;;;;;;;15.43;10.70;;;9.60;99.90;;;;;;5115105;28;20461;-70
2022/03/16 10:32:24;;;;;;;13.37;10.30;;;9.50;99.90;;;;;;5114580;28;20456;-71
2022/03/16 10:34:53;;;;;;;16.53;11.43;;;9.40;99.90;;;;;;5115087;28;20491;-71
2022/03/16 10:37:21;;;;;;;15.70;11.20;;;9.40;99.90;;;;;;5116650;28;20918;-71
2022/03/16 10:39:50;;;;;;;14.03;10.60;;;9.40;99.90;;;;;;5115371;28;20543;-71
2022/03/16 10:47:58;;;;;;;14.30;10.60;;;9.20;99.90;;;;;;5116044;28;20460;-70
2022/03/16 10:50:25;;;;;;;16.47;10.73;;;9.00;99.90;;;;;;5115454;28;20518;-70
2022/03/16 10:52:53;;;;;;;15.20;10.30;;;9.00;99.90;;;;;;5115038;28;20566;-71
2022/03/16 10:55:21;;;;;;;15.80;10.80;;;9.00;99.90;;;;;;5114846;28;20953;-71
2022/03/16 10:57:50;;;;;;;12.80;9.57;;;9.10;99.90;;;;;;5114872;28;20463;-71
2022/03/16 11:00:17;;;;;;;14.53;11.13;;;9.20;99.90;;;;;;5114476;28;20456;-71
2022/03/16 11:02:46;;;;;;;13.03;10.27;;;9.40;99.90;;;;;;5114264;28;20887;-71
2022/03/16 11:05:16;;;;;;;13.90;9.53;;;9.70;99.90;;;;;;5114088;28;20453;-71
2022/03/16 11:07:44;;;;;;;12.43;8.50;;;10.00;99.90;;;;;;5114433;28;20826;-72
2022/03/16 11:10:11;;;;;;;13.63;9.60;;;10.30;99.90;;;;;;5114655;28;20536;-71
2022/03/16 11:15:24;;;;;;;15.13;9.93;;;10.50;99.90;;;;;;5114354;28;20951;-70
2022/03/16 11:17:52;;;;;;;16.83;10.97;;;10.60;99.90;;;;;;5114621;28;20460;-70
2022/03/16 11:20:20;;;;;;;14.33;9.87;;;10.50;99.90;;;;;;5114386;28;20488;-71
2022/03/16 11:25:48;;;;;;;14.07;9.33;;;10.30;99.90;;;;;;5114640;28;20470;-70
2022/03/16 11:28:20;;;;;;;12.50;8.10;;;10.10;99.90;;;;;;5114477;28;20440;-71
2022/03/16 11:30:48;;;;;;;16.07;10.60;;;10.00;99.90;;;;;;5119555;28;20459;-71
2022/03/16 11:33:16;;;;;;;16.80;10.30;;;10.10;99.90;;;;;;5120424;28;20456;-69
2022/03/16 11:35:45;;;;;;;12.80;10.43;;;10.30;99.90;;;;;;5118854;28;20512;-70
2022/03/16 11:38:14;;;;;;;15.10;10.27;;;10.50;99.90;;;;;;5118665;28;20855;-71
2022/03/16 11:40:43;;;;;;;13.27;9.03;;;10.90;99.90;;;;;;5118675;28;20467;-70
2022/03/16 11:43:30;;;;;;;13.67;9.80;;;11.20;99.90;;;;;;5118624;28;20460;-70
2022/03/16 11:45:59;;;;;;;16.10;9.90;;;11.40;99.90;;;;;;5110692;28;20456;-71
2022/03/16 11:48:44;;;;;;;13.90;10.03;;;11.60;99.90;;;;;;5118515;28;20546;-71
2022/03/16 11:51:23;;;;;;;14.70;10.10;;;11.90;99.90;;;;;;5118089;28;20444;-70
2022/03/16 11:54:13;;;;;;;14.00;10.30;;;12.10;99.90;;;;;;5117685;28;20918;-69
2022/03/16 11:56:48;;;;;;;15.83;9.83;;;12.30;99.90;;;;;;5117964;28;20460;-71
2022/03/16 11:59:36;;;;;;;12.27;9.67;;;12.40;99.90;;;;;;5117525;28;20436;-71
2022/03/16 12:02:21;;;;;;;11.23;8.77;;;12.90;99.90;;;;;;5117580;28;20451;-71
2022/03/16 12:04:49;;;;;;;11.80;8.83;;;13.60;99.90;;;;;;5119685;28;20460;-71
2022/03/16 12:07:18;;;;;;;13.40;9.20;;;14.50;99.90;;;;;;5119393;28;20528;-70
2022/03/16 12:09:46;;;;;;;13.57;9.17;;;14.80;99.90;;;;;;5117834;28;20456;-71
2022/03/16 12:15:14;;;;;;;16.60;10.10;;;15.70;99.90;;;;;;5118236;28;20419;-70
2022/03/16 12:18:04;;;;;;;16.03;9.93;;;15.90;99.90;;;;;;5117739;28;20440;-71
2022/03/16 12:20:34;;;;;;;17.60;9.50;;;16.20;99.90;;;;;;5119082;28;20467;-71
2022/03/16 12:23:05;;;;;;;15.70;11.03;;;16.90;99.90;;;;;;5118851;28;20516;-71
2022/03/16 12:25:33;;;;;;;15.53;10.90;;;17.60;99.90;;;;;;5118843;28;20539;-72
2022/03/16 12:30:48;;;;;;;21.20;13.30;;;17.60;99.90;;;;;;5117177;28;20513;-72
2022/03/16 12:33:19;;;;;;;21.10;11.80;;;17.70;99.90;;;;;;5117179;28;20467;-70
2022/03/16 12:35:47;;;;;;;16.17;12.07;;;18.00;99.90;;;;;;5116911;28;20483;-71
2022/03/16 12:38:14;;;;;;;18.60;12.20;;;18.30;99.90;;;;;;5116705;28;20464;-69
2022/03/16 12:42:31;;;;;;;18.20;13.00;;;18.50;99.90;;;;;;5116242;28;20456;-70
2022/03/16 12:43:28;;;;;;;20.80;13.43;;;18.70;99.90;;;;;;5116786;28;20433;-70
2022/03/16 12:46:03;;;;;;;19.20;14.37;;;18.70;99.90;;;;;;5116939;28;20452;-70
2022/03/16 12:48:34;;;;;;;21.97;14.83;;;19.00;99.90;;;;;;5116914;28;20723;-70
2022/03/16 12:51:01;;;;;;;24.47;15.40;;;19.70;99.90;;;;;;5116900;28;20862;-70
2022/03/16 12:53:46;;;;;;;18.87;14.20;;;20.00;99.90;;;;;;5117612;28;20484;-71
2022/03/16 12:56:15;;;;;;;21.07;14.40;;;20.10;99.90;;;;;;5116243;28;20464;-72
2022/03/16 12:58:43;;;;;;;19.40;13.60;;;20.30;99.90;;;;;;5116869;28;20456;-70
2022/03/16 13:01:17;;;;;;;23.70;16.33;;;20.50;99.90;;;;;;5116493;28;20492;-72
2022/03/16 13:03:46;;;;;;;33.30;17.30;;;20.50;99.90;;;;;;5116937;28;20440;-71
2022/03/16 13:06:15;;;;;;;26.73;15.20;;;20.20;99.90;;;;;;5116537;28;20444;-72
2022/03/16 13:08:43;;;;;;;21.73;15.50;;;20.30;99.90;;;;;;5116898;28;20461;-72